createdAt,value
2018-08-16T00:03:56.327Z,96019.00
2018-08-16T00:09:25.661Z,96010.00
2018-08-16T00:14:55.026Z,96015.00
2018-08-16T00:20:24.346Z,96005.00
2018-08-16T00:25:53.733Z,96001.00
2018-08-16T00:31:23.104Z,95992.00
2018-08-16T00:36:52.659Z,96002.00
2018-08-16T00:42:22.051Z,95995.00
2018-08-16T00:47:51.475Z,95995.00
2018-08-16T00:53:21.761Z,95996.00
2018-08-16T00:58:51.111Z,95989.00
2018-08-16T01:04:20.659Z,95989.00
2018-08-16T01:09:49.963Z,95985.00
2018-08-16T01:15:19.404Z,95982.00
2018-08-16T01:20:48.724Z,95985.00
2018-08-16T01:26:17.995Z,95979.00
2018-08-16T01:31:47.768Z,95973.00
2018-08-16T01:37:17.734Z,95967.00
2018-08-16T01:42:47.016Z,95964.00
2018-08-16T01:48:16.291Z,95960.00
2018-08-16T01:53:45.548Z,95971.00
2018-08-16T01:59:14.768Z,95963.00
2018-08-16T02:04:44.012Z,95970.00
2018-08-16T02:10:13.283Z,95971.00
2018-08-16T02:15:42.480Z,95964.00
2018-08-16T02:21:13.591Z,95955.00
2018-08-16T02:26:42.888Z,95954.00
2018-08-16T02:32:12.175Z,95952.00
2018-08-16T02:37:41.528Z,95937.00
2018-08-16T02:43:10.891Z,95947.00
2018-08-16T02:48:40.240Z,95945.00
2018-08-16T02:54:09.544Z,95942.00
2018-08-16T02:59:38.861Z,95943.00
2018-08-16T03:05:08.287Z,95935.00
2018-08-16T03:10:37.530Z,95940.00
2018-08-16T03:16:07.928Z,95925.00
2018-08-16T03:21:38.691Z,95934.00
2018-08-16T03:27:07.960Z,95931.00
2018-08-16T03:32:37.187Z,95932.00
2018-08-16T03:38:07.149Z,95930.00
2018-08-16T03:43:36.548Z,95927.00
2018-08-16T03:49:05.967Z,95925.00
2018-08-16T03:54:35.234Z,95924.00
2018-08-16T04:00:05.871Z,95924.00
2018-08-16T04:05:35.163Z,95934.00
2018-08-16T04:11:04.556Z,95926.00
2018-08-16T04:16:33.912Z,95932.00
2018-08-16T04:22:03.327Z,95943.00
2018-08-16T04:27:32.667Z,95935.00
2018-08-16T04:33:01.975Z,95926.00
2018-08-16T04:38:31.269Z,95927.00
2018-08-16T04:44:00.658Z,95926.00
2018-08-16T04:49:30.013Z,95928.00
2018-08-16T04:54:59.310Z,95919.00
2018-08-16T05:00:28.622Z,95925.00
2018-08-16T05:05:57.891Z,95923.00
2018-08-16T05:11:27.156Z,95925.00
2018-08-16T05:16:56.520Z,95918.00
2018-08-16T05:22:25.852Z,95926.00
2018-08-16T05:27:55.219Z,95924.00
2018-08-16T05:33:24.524Z,95916.00
2018-08-16T05:38:53.906Z,95925.00
2018-08-16T05:44:23.175Z,95923.00
2018-08-16T05:49:52.499Z,95926.00
2018-08-16T05:55:21.863Z,95932.00
2018-08-16T06:00:51.223Z,95930.00
2018-08-16T06:06:20.573Z,95927.00
2018-08-16T06:11:49.902Z,95919.00
2018-08-16T06:17:19.189Z,95925.00
2018-08-16T06:22:48.563Z,95922.00
2018-08-16T06:28:18.040Z,95922.00
2018-08-16T06:33:47.459Z,95917.00
2018-08-16T06:39:16.687Z,95916.00
2018-08-16T06:44:45.947Z,95920.00
2018-08-16T06:50:15.805Z,95919.00
2018-08-16T06:55:45.819Z,95914.00
2018-08-16T07:01:15.250Z,95914.00
2018-08-16T07:06:45.588Z,95911.00
2018-08-16T07:12:15.234Z,95915.00
2018-08-16T07:17:45.312Z,95917.00
2018-08-16T07:23:14.653Z,95918.00
2018-08-16T07:28:43.905Z,95919.00
2018-08-16T07:34:13.409Z,95928.00
2018-08-16T07:39:42.794Z,95911.00
2018-08-16T07:45:12.402Z,95908.00
2018-08-16T07:50:41.651Z,95915.00
2018-08-16T07:56:10.995Z,95917.00
2018-08-16T08:01:40.498Z,95919.00
2018-08-16T08:07:09.795Z,95924.00
2018-08-16T08:12:39.263Z,95916.00
2018-08-16T08:18:08.772Z,95911.00
2018-08-16T08:23:38.005Z,95916.00
2018-08-16T08:29:07.332Z,95915.00
2018-08-16T08:34:36.645Z,95910.00
2018-08-16T08:40:06.477Z,95911.00
2018-08-16T08:45:35.849Z,95902.00
2018-08-16T08:51:06.420Z,95904.00
2018-08-16T08:56:53.113Z,95892.00
2018-08-16T09:02:23.682Z,95896.00
2018-08-16T09:07:53.053Z,95891.00
2018-08-16T09:13:39.648Z,95889.00
2018-08-16T09:19:09.764Z,95880.00
2018-08-16T09:24:38.973Z,95875.00
2018-08-16T09:32:28.370Z,95875.00
2018-08-16T09:37:58.268Z,95858.00
2018-08-16T09:43:27.626Z,95849.00
2018-08-16T09:48:57.206Z,95848.00
2018-08-16T09:54:26.724Z,95838.00
2018-08-16T09:59:57.022Z,95833.00
2018-08-16T10:05:26.495Z,95824.00
2018-08-16T10:10:55.887Z,95827.00
2018-08-16T10:16:25.642Z,95832.00
2018-08-16T10:21:55.095Z,95827.00
2018-08-16T10:27:24.408Z,95821.00
2018-08-16T10:32:55.316Z,95824.00
2018-08-16T10:38:24.839Z,95810.00
2018-08-16T10:43:54.315Z,95804.00
2018-08-16T10:49:23.901Z,95796.00
2018-08-16T10:54:54.855Z,95801.00
2018-08-16T11:00:24.350Z,95798.00
2018-08-16T11:05:54.640Z,95789.00
2018-08-16T11:11:23.997Z,95787.00
2018-08-16T11:16:53.419Z,95775.00
2018-08-16T11:22:22.926Z,95780.00
2018-08-16T11:27:56.335Z,95772.00
2018-08-16T11:33:25.831Z,95766.00
2018-08-16T11:38:55.308Z,95768.00
2018-08-16T11:44:24.880Z,95766.00
2018-08-16T11:49:54.691Z,95759.00
2018-08-16T11:55:24.160Z,95758.00
2018-08-16T12:00:53.689Z,95752.00
2018-08-16T12:06:23.137Z,95747.00
2018-08-16T12:11:52.531Z,95751.00
2018-08-16T12:17:21.907Z,95750.00
2018-08-16T12:22:51.439Z,95739.00
2018-08-16T12:28:20.815Z,95733.00
2018-08-16T12:33:50.132Z,95733.00
2018-08-16T12:39:19.400Z,95730.00
2018-08-16T12:44:48.673Z,95728.00
2018-08-16T12:50:18.062Z,95721.00
2018-08-16T12:55:47.313Z,95710.00
2018-08-16T13:01:16.623Z,95704.00
2018-08-16T13:06:45.884Z,95701.00
2018-08-16T13:12:15.192Z,95691.00
2018-08-16T13:17:44.631Z,95677.00
2018-08-16T13:23:14.989Z,95672.00
2018-08-16T13:28:44.483Z,95675.00
2018-08-16T13:34:14.055Z,95670.00
2018-08-16T13:39:44.352Z,95660.00
2018-08-16T13:45:13.563Z,95662.00
2018-08-16T13:50:42.868Z,95658.00
2018-08-16T13:56:12.079Z,95654.00
2018-08-16T14:01:41.443Z,95647.00
2018-08-16T14:07:10.766Z,95640.00
2018-08-16T14:12:40.079Z,95646.00
2018-08-16T14:18:09.319Z,95639.00
2018-08-16T14:23:38.565Z,95632.00
2018-08-16T14:29:07.808Z,95620.00
2018-08-16T14:34:37.084Z,95624.00
2018-08-16T14:40:06.591Z,95616.00
2018-08-16T14:45:35.864Z,95604.00
2018-08-16T14:51:05.259Z,95605.00
2018-08-16T14:56:34.964Z,95519.00
2018-08-16T15:02:04.256Z,95547.00
2018-08-16T15:07:33.531Z,95606.00
2018-08-16T15:13:03.453Z,95607.00
2018-08-16T15:18:33.164Z,95612.00
2018-08-16T15:24:02.492Z,95608.00
2018-08-16T15:29:31.831Z,95609.00
2018-08-16T15:35:01.159Z,95602.00
2018-08-16T15:40:30.849Z,95603.00
2018-08-16T15:46:00.179Z,95569.00
2018-08-16T15:51:29.592Z,95607.00
2018-08-16T15:56:58.967Z,95601.00
2018-08-16T16:02:28.372Z,95604.00
2018-08-16T16:07:58.753Z,95594.00
2018-08-16T16:13:28.050Z,95602.00
2018-08-16T16:18:57.408Z,95596.00
2018-08-16T16:24:26.852Z,95591.00
2018-08-16T16:29:56.327Z,95586.00
2018-08-16T16:35:26.153Z,95586.00
2018-08-16T16:40:55.802Z,95588.00
2018-08-16T16:46:25.346Z,95576.00
2018-08-16T16:51:55.353Z,95581.00
2018-08-16T16:57:25.053Z,95577.00
2018-08-16T17:02:54.607Z,95585.00
2018-08-16T17:08:24.108Z,95586.00
2018-08-16T17:13:53.773Z,95587.00
2018-08-16T17:19:23.418Z,95585.00
2018-08-16T17:24:53.060Z,95588.00
2018-08-16T17:30:22.385Z,95586.00
2018-08-16T17:35:51.672Z,95587.00
2018-08-16T17:41:20.949Z,95589.00
2018-08-16T17:46:50.264Z,95582.00
2018-08-16T17:52:19.666Z,95578.00
2018-08-16T17:57:48.935Z,95572.00
2018-08-16T18:03:18.434Z,95580.00
2018-08-16T18:08:47.627Z,95574.00
2018-08-16T18:14:16.872Z,95575.00
2018-08-16T18:19:46.247Z,95576.00
2018-08-16T18:31:18.672Z,95577.00
2018-08-16T18:36:48.015Z,95586.00
2018-08-16T18:42:17.264Z,95582.00
2018-08-16T18:47:47.241Z,95588.00
2018-08-16T18:53:16.583Z,95603.00
2018-08-16T18:58:46.263Z,95605.00
2018-08-16T19:04:15.783Z,95614.00
2018-08-16T19:09:45.191Z,95608.00
2018-08-16T19:15:14.470Z,95618.00
2018-08-16T19:20:43.880Z,95610.00
2018-08-16T19:26:13.204Z,95619.00
2018-08-16T19:31:42.683Z,95623.00
2018-08-16T19:37:13.120Z,95624.00
2018-08-16T19:42:42.447Z,95628.00
2018-08-16T19:48:11.971Z,95625.00
2018-08-16T19:53:42.413Z,95619.00
2018-08-16T19:59:11.663Z,95610.00
2018-08-16T20:04:41.067Z,95609.00
2018-08-16T20:10:12.083Z,95605.00
2018-08-16T20:15:41.694Z,95603.00
2018-08-16T20:21:11.109Z,95599.00
2018-08-16T20:26:40.487Z,95589.00
2018-08-16T20:32:12.287Z,95600.00
2018-08-16T20:37:41.787Z,95594.00
2018-08-16T20:43:12.242Z,95597.00
2018-08-16T20:48:41.811Z,95603.00
2018-08-16T20:54:11.182Z,95605.00
2018-08-16T20:59:40.860Z,95606.00
2018-08-16T21:05:12.340Z,95610.00
2018-08-16T21:10:41.686Z,95609.00
2018-08-16T21:16:11.034Z,95606.00
2018-08-16T21:21:40.467Z,95615.00
2018-08-16T21:27:10.072Z,95616.00
2018-08-16T21:32:39.487Z,95617.00
2018-08-16T21:38:09.046Z,95609.00
2018-08-16T21:43:38.509Z,95613.00
2018-08-16T21:49:07.927Z,95614.00
2018-08-16T21:54:37.351Z,95612.00
2018-08-16T22:00:08.357Z,95613.00
2018-08-16T22:06:08.821Z,95617.00
2018-08-16T22:11:38.372Z,95621.00
2018-08-16T22:17:07.727Z,95610.00
2018-08-16T22:22:37.046Z,95617.00
2018-08-16T22:28:06.436Z,95617.00
2018-08-16T22:33:35.698Z,95613.00
2018-08-16T22:39:08.496Z,95619.00
2018-08-16T22:44:38.326Z,95605.00
2018-08-16T22:50:08.276Z,95605.00
2018-08-16T22:55:37.539Z,95609.00
2018-08-16T23:01:06.888Z,95606.00
2018-08-16T23:06:36.169Z,95596.00
2018-08-16T23:12:05.657Z,95587.00
2018-08-16T23:17:34.818Z,95582.00
2018-08-16T23:23:04.069Z,95580.00
2018-08-16T23:28:33.283Z,95584.00
2018-08-16T23:34:02.448Z,95580.00
2018-08-16T23:39:31.758Z,95578.00
2018-08-16T23:45:00.997Z,95571.00
2018-08-16T23:50:30.231Z,95570.00
2018-08-16T23:55:59.508Z,95567.00
